Time,TemperatureF,DewpointF,PressureIn,WindDirection,WindDirectionDegrees,WindSpeedMPH,WindSpeedGustMPH,Humidity,HourlyPrecipIn,Conditions,Clouds,dailyrainin,SoftwareType,DateUTC
2013-09-19 00:02:00,72.0,70.0,29.97,North,0,0.0,0.0,93,0.00,,,0.00,Meteo,2013-09-19 04:02:00,
2013-09-19 00:04:00,72.0,70.0,29.97,North,0,0.0,0.0,93,0.00,,,0.00,Meteo,2013-09-19 04:04:00,
2013-09-19 00:05:00,72.0,70.0,29.97,North,0,0.0,0.0,93,0.00,,,0.00,Meteo,2013-09-19 04:05:00,
2013-09-19 00:07:00,72.0,70.0,29.97,North,0,0.0,0.0,93,0.00,,,0.00,Meteo,2013-09-19 04:07:00,
2013-09-19 00:09:00,72.0,70.0,29.97,North,0,0.0,0.0,93,0.00,,,0.00,Meteo,2013-09-19 04:09:00,
2013-09-19 00:15:00,71.0,69.0,29.97,North,0,0.0,0.0,94,0.00,,,0.00,Meteo,2013-09-19 04:15:00,
2013-09-19 00:20:00,71.0,69.0,29.97,North,0,0.0,0.0,94,0.00,,,0.00,Meteo,2013-09-19 04:20:00,
2013-09-19 00:25:00,71.0,69.0,29.97,NE,40,1.0,2.0,94,0.00,,,0.00,Meteo,2013-09-19 04:25:00,
2013-09-19 00:30:00,71.0,69.0,29.97,North,0,0.0,0.0,94,0.00,,,0.00,Meteo,2013-09-19 04:30:00,
2013-09-19 00:35:00,71.0,69.0,29.97,North,0,0.0,0.0,95,0.00,,,0.00,Meteo,2013-09-19 04:35:00,
2013-09-19 00:40:00,71.0,69.0,29.97,NE,41,0.0,1.0,95,0.00,,,0.00,Meteo,2013-09-19 04:40:00,
2013-09-19 00:46:00,71.0,69.0,29.96,North,0,0.0,0.0,95,0.00,,,0.00,Meteo,2013-09-19 04:46:00,
2013-09-19 00:51:00,71.0,70.0,29.96,North,0,0.0,0.0,96,0.00,,,0.00,Meteo,2013-09-19 04:51:00,
2013-09-19 00:56:00,71.0,70.0,29.96,North,0,0.0,0.0,96,0.00,,,0.00,Meteo,2013-09-19 04:56:00,
2013-09-19 01:01:00,71.0,70.0,29.96,North,0,0.0,0.0,96,0.00,,,0.00,Meteo,2013-09-19 05:01:00,
2013-09-19 01:06:00,71.0,70.0,29.96,North,0,0.0,0.0,96,0.00,,,0.00,Meteo,2013-09-19 05:06:00,
2013-09-19 01:11:00,71.0,70.0,29.96,North,0,0.0,0.0,96,0.00,,,0.00,Meteo,2013-09-19 05:11:00,
2013-09-19 01:17:00,71.0,70.0,29.96,North,0,0.0,0.0,96,0.00,,,0.00,Meteo,2013-09-19 05:17:00,
2013-09-19 01:22:00,71.0,70.0,29.96,North,0,0.0,0.0,96,0.00,,,0.00,Meteo,2013-09-19 05:22:00,
2013-09-19 01:27:00,71.0,70.0,29.96,North,0,0.0,0.0,96,0.00,,,0.00,Meteo,2013-09-19 05:27:00,
2013-09-19 01:32:00,71.0,70.0,29.95,North,0,0.0,0.0,97,0.00,,,0.00,Meteo,2013-09-19 05:32:00,
2013-09-19 01:37:00,71.0,70.0,29.95,North,0,0.0,0.0,96,0.00,,,0.00,Meteo,2013-09-19 05:37:00,
2013-09-19 01:43:00,71.0,70.0,29.95,North,0,0.0,0.0,97,0.00,,,0.00,Meteo,2013-09-19 05:43:00,
2013-09-19 01:48:00,71.0,70.0,29.95,ENE,78,1.0,2.0,97,0.00,,,0.00,Meteo,2013-09-19 05:48:00,
2013-09-19 01:53:00,71.0,70.0,29.95,ENE,78,0.0,1.0,97,0.00,,,0.00,Meteo,2013-09-19 05:53:00,
2013-09-19 01:58:00,71.0,70.0,29.94,North,0,0.0,0.0,97,0.00,,,0.00,Meteo,2013-09-19 05:58:00,
2013-09-19 02:03:00,71.0,70.0,29.94,North,0,0.0,0.0,97,0.00,,,0.00,Meteo,2013-09-19 06:03:00,
2013-09-19 02:08:00,71.0,70.0,29.94,ENE,71,1.0,2.0,97,0.00,,,0.00,Meteo,2013-09-19 06:08:00,
2013-09-19 02:14:00,71.0,70.0,29.93,North,0,0.0,0.0,97,0.00,,,0.00,Meteo,2013-09-19 06:14:00,
2013-09-19 02:19:00,71.0,70.0,29.93,East,82,0.0,1.0,98,0.00,,,0.00,Meteo,2013-09-19 06:19:00,
2013-09-19 02:24:00,72.0,71.0,29.93,ENE,75,0.0,1.0,98,0.00,,,0.00,Meteo,2013-09-19 06:24:00,
2013-09-19 02:29:00,72.0,71.0,29.93,North,0,0.0,0.0,98,0.00,,,0.00,Meteo,2013-09-19 06:29:00,
2013-09-19 02:34:00,72.0,71.0,29.93,ENE,76,0.0,1.0,98,0.00,,,0.00,Meteo,2013-09-19 06:34:00,
2013-09-19 02:39:00,72.0,71.0,29.93,NNE,26,1.0,5.0,98,0.00,,,0.00,Meteo,2013-09-19 06:39:00,
2013-09-19 02:45:00,72.0,71.0,29.93,NNE,31,1.0,6.0,98,0.00,,,0.00,Meteo,2013-09-19 06:45:00,
2013-09-19 02:50:00,72.0,71.0,29.93,East,80,2.0,6.0,98,0.00,,,0.00,Meteo,2013-09-19 06:50:00,
2013-09-19 02:55:00,72.0,71.0,29.93,East,84,1.0,2.0,98,0.00,,,0.00,Meteo,2013-09-19 06:55:00,
2013-09-19 03:00:00,73.0,72.0,29.93,East,89,1.0,3.0,98,0.00,,,0.00,Meteo,2013-09-19 07:00:00,
2013-09-19 03:05:00,73.0,72.0,29.93,East,89,0.0,1.0,98,0.00,,,0.00,Meteo,2013-09-19 07:05:00,
2013-09-19 03:10:00,73.0,72.0,29.93,East,83,1.0,2.0,98,0.00,,,0.00,Meteo,2013-09-19 07:10:00,
2013-09-19 03:16:00,73.0,72.0,29.92,East,82,0.0,1.0,98,0.00,,,0.00,Meteo,2013-09-19 07:16:00,
2013-09-19 03:21:00,73.0,72.0,29.92,East,82,0.0,2.0,98,0.00,,,0.00,Meteo,2013-09-19 07:21:00,
2013-09-19 03:26:00,73.0,72.0,29.92,North,0,0.0,0.0,98,0.00,,,0.00,Meteo,2013-09-19 07:26:00,
2013-09-19 03:31:00,72.0,71.0,29.92,North,0,0.0,0.0,98,0.00,,,0.00,Meteo,2013-09-19 07:31:00,
2013-09-19 03:36:00,72.0,71.0,29.92,North,0,0.0,0.0,98,0.00,,,0.00,Meteo,2013-09-19 07:36:00,
2013-09-19 03:41:00,72.0,71.0,29.92,North,0,0.0,0.0,98,0.00,,,0.00,Meteo,2013-09-19 07:41:00,
2013-09-19 03:47:00,72.0,71.0,29.92,North,0,0.0,0.0,98,0.00,,,0.00,Meteo,2013-09-19 07:47:00,
2013-09-19 03:52:00,72.0,71.0,29.92,East,83,1.0,2.0,98,0.00,,,0.00,Meteo,2013-09-19 07:52:00,
2013-09-19 03:57:00,72.0,71.0,29.91,ENE,75,0.0,1.0,98,0.00,,,0.00,Meteo,2013-09-19 07:57:00,
2013-09-19 04:02:00,72.0,71.0,29.91,ENE,72,1.0,2.0,98,0.00,,,0.00,Meteo,2013-09-19 08:02:00,
2013-09-19 04:07:00,72.0,71.0,29.91,North,0,0.0,0.0,98,0.00,,,0.00,Meteo,2013-09-19 08:07:00,
2013-09-19 04:13:00,72.0,71.0,29.91,ENE,73,0.0,2.0,98,0.00,,,0.00,Meteo,2013-09-19 08:13:00,
2013-09-19 04:18:00,72.0,71.0,29.91,North,0,0.0,0.0,98,0.00,,,0.00,Meteo,2013-09-19 08:18:00,
2013-09-19 04:23:00,72.0,71.0,29.91,North,0,0.0,0.0,98,0.00,,,0.00,Meteo,2013-09-19 08:23:00,
2013-09-19 04:28:00,72.0,71.0,29.91,ENE,73,0.0,1.0,98,0.00,,,0.00,Meteo,2013-09-19 08:28:00,
2013-09-19 04:33:00,72.0,71.0,29.91,North,0,0.0,0.0,98,0.00,,,0.00,Meteo,2013-09-19 08:33:00,
2013-09-19 04:38:00,72.0,71.0,29.91,North,0,0.0,0.0,98,0.00,,,0.00,Meteo,2013-09-19 08:38:00,
2013-09-19 04:44:00,72.0,71.0,29.91,North,0,0.0,0.0,98,0.00,,,0.00,Meteo,2013-09-19 08:44:00,
2013-09-19 04:49:00,72.0,71.0,29.91,North,0,0.0,0.0,98,0.00,,,0.00,Meteo,2013-09-19 08:49:00,
2013-09-19 04:54:00,72.0,71.0,29.91,North,0,0.0,0.0,98,0.00,,,0.00,Meteo,2013-09-19 08:54:00,
2013-09-19 04:59:00,72.0,71.0,29.91,North,0,0.0,0.0,98,0.00,,,0.00,Meteo,2013-09-19 08:59:00,
2013-09-19 05:04:00,72.0,71.0,29.91,North,0,0.0,0.0,98,0.00,,,0.00,Meteo,2013-09-19 09:04:00,
2013-09-19 05:09:00,72.0,71.0,29.91,North,0,0.0,0.0,98,0.00,,,0.00,Meteo,2013-09-19 09:09:00,
2013-09-19 05:15:00,72.0,71.0,29.92,North,0,0.0,0.0,98,0.00,,,0.00,Meteo,2013-09-19 09:15:00,
2013-09-19 05:20:00,72.0,71.0,29.92,North,0,0.0,0.0,98,0.00,,,0.00,Meteo,2013-09-19 09:20:00,
2013-09-19 05:25:00,72.0,71.0,29.92,North,0,0.0,0.0,98,0.00,,,0.00,Meteo,2013-09-19 09:25:00,
2013-09-19 05:30:00,72.0,71.0,29.92,North,0,0.0,0.0,98,0.00,,,0.00,Meteo,2013-09-19 09:30:00,
2013-09-19 05:35:00,72.0,71.0,29.92,North,0,0.0,0.0,98,0.00,,,0.00,Meteo,2013-09-19 09:35:00,
2013-09-19 05:40:00,71.0,70.0,29.92,North,0,0.0,0.0,98,0.00,,,0.00,Meteo,2013-09-19 09:40:00,
2013-09-19 05:46:00,71.0,70.0,29.92,North,0,0.0,0.0,98,0.00,,,0.00,Meteo,2013-09-19 09:46:00,
2013-09-19 05:51:00,71.0,70.0,29.92,North,0,0.0,0.0,98,0.00,,,0.00,Meteo,2013-09-19 09:51:00,
2013-09-19 05:56:00,71.0,70.0,29.92,North,0,0.0,0.0,98,0.00,,,0.00,Meteo,2013-09-19 09:56:00,
2013-09-19 06:01:00,71.0,70.0,29.92,North,0,0.0,0.0,98,0.00,,,0.00,Meteo,2013-09-19 10:01:00,
2013-09-19 06:06:00,71.0,70.0,29.92,North,0,0.0,0.0,98,0.00,,,0.00,Meteo,2013-09-19 10:06:00,
2013-09-19 06:12:00,71.0,70.0,29.92,North,0,0.0,0.0,98,0.00,,,0.00,Meteo,2013-09-19 10:12:00,
2013-09-19 06:17:00,71.0,70.0,29.92,North,0,0.0,0.0,98,0.00,,,0.00,Meteo,2013-09-19 10:17:00,
2013-09-19 06:22:00,71.0,70.0,29.92,North,0,0.0,0.0,98,0.00,,,0.00,Meteo,2013-09-19 10:22:00,
2013-09-19 06:27:00,71.0,70.0,29.92,North,0,0.0,0.0,98,0.00,,,0.00,Meteo,2013-09-19 10:27:00,
2013-09-19 06:32:00,71.0,70.0,29.92,North,0,0.0,0.0,98,0.00,,,0.00,Meteo,2013-09-19 10:32:00,
2013-09-19 06:37:00,71.0,70.0,29.92,North,0,0.0,0.0,98,0.00,,,0.00,Meteo,2013-09-19 10:37:00,
2013-09-19 06:43:00,71.0,70.0,29.93,North,0,0.0,0.0,98,0.00,,,0.00,Meteo,2013-09-19 10:43:00,
2013-09-19 06:48:00,71.0,70.0,29.93,North,0,0.0,0.0,98,0.00,,,0.00,Meteo,2013-09-19 10:48:00,
2013-09-19 06:53:00,71.0,70.0,29.93,North,0,0.0,0.0,98,0.00,,,0.00,Meteo,2013-09-19 10:53:00,
2013-09-19 06:58:00,71.0,70.0,29.93,North,0,0.0,0.0,98,0.00,,,0.00,Meteo,2013-09-19 10:58:00,
2013-09-19 07:03:00,71.0,70.0,29.93,North,0,0.0,0.0,98,0.00,,,0.00,Meteo,2013-09-19 11:03:00,
2013-09-19 07:08:00,71.0,70.0,29.93,North,0,0.0,0.0,98,0.00,,,0.00,Meteo,2013-09-19 11:08:00,
2013-09-19 07:14:00,71.0,70.0,29.93,North,0,0.0,0.0,98,0.00,,,0.00,Meteo,2013-09-19 11:14:00,
2013-09-19 07:19:00,71.0,70.0,29.93,North,0,0.0,0.0,98,0.00,,,0.00,Meteo,2013-09-19 11:19:00,
2013-09-19 07:24:00,71.0,70.0,29.93,North,0,0.0,0.0,98,0.00,,,0.00,Meteo,2013-09-19 11:24:00,
2013-09-19 07:29:00,71.0,70.0,29.94,North,0,0.0,0.0,98,0.00,,,0.00,Meteo,2013-09-19 11:29:00,
2013-09-19 07:34:00,71.0,70.0,29.94,North,0,0.0,0.0,98,0.00,,,0.00,Meteo,2013-09-19 11:34:00,
2013-09-19 07:39:00,71.0,70.0,29.94,North,0,0.0,0.0,98,0.00,,,0.00,Meteo,2013-09-19 11:39:00,
2013-09-19 07:45:00,71.0,70.0,29.94,North,0,0.0,0.0,98,0.00,,,0.00,Meteo,2013-09-19 11:45:00,
2013-09-19 07:50:00,72.0,71.0,29.94,North,0,0.0,0.0,98,0.00,,,0.00,Meteo,2013-09-19 11:50:00,
2013-09-19 07:55:00,72.0,71.0,29.94,North,0,0.0,0.0,98,0.00,,,0.00,Meteo,2013-09-19 11:55:00,
2013-09-19 08:00:00,72.0,71.0,29.94,ENE,72,0.0,1.0,98,0.00,,,0.00,Meteo,2013-09-19 12:00:00,
2013-09-19 08:05:00,73.0,72.0,29.94,ENE,62,1.0,2.0,98,0.00,,,0.00,Meteo,2013-09-19 12:05:00,
2013-09-19 08:11:00,73.0,72.0,29.94,ENE,58,2.0,3.0,98,0.00,,,0.00,Meteo,2013-09-19 12:11:00,
2013-09-19 08:16:00,73.0,72.0,29.94,ENE,58,0.0,2.0,98,0.00,,,0.00,Meteo,2013-09-19 12:16:00,
2013-09-19 08:21:00,73.0,72.0,29.94,North,0,0.0,0.0,98,0.00,,,0.00,Meteo,2013-09-19 12:21:00,
2013-09-19 08:26:00,74.0,73.0,29.94,NE,47,1.0,2.0,98,0.00,,,0.00,Meteo,2013-09-19 12:26:00,
2013-09-19 08:31:00,74.0,73.0,29.94,North,0,0.0,0.0,98,0.00,,,0.00,Meteo,2013-09-19 12:31:00,
2013-09-19 08:36:00,74.0,73.0,29.94,NNE,28,0.0,1.0,98,0.00,,,0.00,Meteo,2013-09-19 12:36:00,
2013-09-19 08:42:00,74.0,73.0,29.94,North,2,3.0,5.0,98,0.00,,,0.00,Meteo,2013-09-19 12:42:00,
2013-09-19 08:47:00,74.0,73.0,29.96,North,10,1.0,2.0,98,0.00,,,0.00,Meteo,2013-09-19 12:47:00,
2013-09-19 08:52:00,75.0,74.0,29.96,North,1,2.0,3.0,98,0.00,,,0.00,Meteo,2013-09-19 12:52:00,
2013-09-19 08:57:00,75.0,74.0,29.96,North,9,1.0,3.0,98,0.00,,,0.00,Meteo,2013-09-19 12:57:00,
2013-09-19 09:02:00,76.0,75.0,29.96,NNE,20,0.0,1.0,98,0.00,,,0.00,Meteo,2013-09-19 13:02:00,
2013-09-19 09:07:00,76.0,75.0,29.96,NE,47,1.0,3.0,98,0.00,,,0.00,Meteo,2013-09-19 13:07:00,
2013-09-19 09:13:00,76.0,75.0,29.96,NNE,33,2.0,3.0,97,0.00,,,0.00,Meteo,2013-09-19 13:13:00,
2013-09-19 09:18:00,76.0,74.0,29.96,ENE,77,3.0,6.0,94,0.00,,,0.00,Meteo,2013-09-19 13:18:00,
2013-09-19 09:23:00,77.0,75.0,29.96,NE,48,1.0,2.0,92,0.00,,,0.00,Meteo,2013-09-19 13:23:00,
2013-09-19 09:28:00,77.0,74.0,29.96,NE,51,2.0,4.0,91,0.00,,,0.00,Meteo,2013-09-19 13:28:00,
2013-09-19 09:33:00,78.0,74.0,29.96,ENE,70,2.0,3.0,89,0.00,,,0.00,Meteo,2013-09-19 13:33:00,
2013-09-19 09:39:00,78.0,74.0,29.96,East,96,2.0,6.0,88,0.00,,,0.00,Meteo,2013-09-19 13:39:00,
2013-09-19 09:44:00,79.0,75.0,29.96,East,88,2.0,3.0,87,0.00,,,0.00,Meteo,2013-09-19 13:44:00,
2013-09-19 09:49:00,79.0,74.0,29.96,East,94,4.0,10.0,85,0.00,,,0.00,Meteo,2013-09-19 13:49:00,
2013-09-19 09:54:00,80.0,74.0,29.96,East,84,4.0,8.0,83,0.00,,,0.00,Meteo,2013-09-19 13:54:00,
2013-09-19 09:59:00,80.0,73.0,29.96,East,84,2.0,7.0,80,0.00,,,0.00,Meteo,2013-09-19 13:59:00,
2013-09-19 10:04:00,81.0,73.0,29.96,East,85,1.0,5.0,78,0.00,,,0.00,Meteo,2013-09-19 14:04:00,
2013-09-19 10:10:00,81.0,73.0,29.96,East,84,2.0,4.0,77,0.00,,,0.00,Meteo,2013-09-19 14:10:00,
2013-09-19 10:15:00,82.0,74.0,29.96,NE,41,1.0,3.0,78,0.00,,,0.00,Meteo,2013-09-19 14:15:00,
2013-09-19 10:20:00,82.0,74.0,29.96,NE,52,4.0,8.0,77,0.00,,,0.00,Meteo,2013-09-19 14:20:00,
2013-09-19 10:25:00,83.0,74.0,29.96,ENE,63,4.0,10.0,75,0.00,,,0.00,Meteo,2013-09-19 14:25:00,
2013-09-19 10:30:00,83.0,74.0,29.96,ENE,60,3.0,5.0,75,0.00,,,0.00,Meteo,2013-09-19 14:30:00,
2013-09-19 10:35:00,82.0,74.0,29.96,ENE,78,2.0,5.0,76,0.00,,,0.00,Meteo,2013-09-19 14:35:00,
2013-09-19 10:41:00,83.0,74.0,29.96,NE,54,2.0,3.0,75,0.00,,,0.00,Meteo,2013-09-19 14:41:00,
2013-09-19 10:46:00,83.0,74.0,29.97,North,8,2.0,5.0,75,0.00,,,0.00,Meteo,2013-09-19 14:46:00,
2013-09-19 10:51:00,83.0,73.0,29.97,East,91,1.0,2.0,72,0.00,,,0.00,Meteo,2013-09-19 14:51:00,
2013-09-19 10:56:00,83.0,73.0,29.97,East,97,1.0,2.0,72,0.00,,,0.00,Meteo,2013-09-19 14:56:00,
2013-09-19 11:01:00,83.0,72.0,29.97,ENE,74,1.0,4.0,70,0.00,,,0.00,Meteo,2013-09-19 15:01:00,
2013-09-19 11:06:00,83.0,72.0,29.97,ENE,77,3.0,7.0,70,0.00,,,0.00,Meteo,2013-09-19 15:06:00,
2013-09-19 11:12:00,83.0,72.0,29.97,NE,49,2.0,5.0,70,0.00,,,0.00,Meteo,2013-09-19 15:12:00,
2013-09-19 11:17:00,84.0,73.0,29.98,NNE,14,2.0,7.0,70,0.00,,,0.00,Meteo,2013-09-19 15:17:00,
2013-09-19 11:22:00,84.0,73.0,29.98,ENE,63,2.0,4.0,69,0.00,,,0.00,Meteo,2013-09-19 15:22:00,
2013-09-19 11:27:00,84.0,72.0,29.98,ENE,62,3.0,6.0,68,0.00,,,0.00,Meteo,2013-09-19 15:27:00,
2013-09-19 11:32:00,84.0,72.0,29.98,East,92,2.0,6.0,68,0.00,,,0.00,Meteo,2013-09-19 15:32:00,
2013-09-19 11:38:00,85.0,73.0,29.98,East,86,2.0,6.0,67,0.00,,,0.00,Meteo,2013-09-19 15:38:00,
2013-09-19 11:43:00,85.0,72.0,29.98,ENE,66,2.0,10.0,66,0.00,,,0.00,Meteo,2013-09-19 15:43:00,
2013-09-19 11:48:00,86.0,74.0,29.99,East,80,0.0,1.0,67,0.00,,,0.00,Meteo,2013-09-19 15:48:00,
2013-09-19 11:53:00,86.0,71.0,29.99,NE,36,2.0,7.0,62,0.00,,,0.00,Meteo,2013-09-19 15:53:00,
2013-09-19 11:58:00,86.0,71.0,29.99,NE,46,4.0,10.0,61,0.00,,,0.00,Meteo,2013-09-19 15:58:00,
2013-09-19 12:03:00,86.0,71.0,29.99,ENE,59,0.0,2.0,61,0.00,,,0.00,Meteo,2013-09-19 16:03:00,
2013-09-19 12:09:00,87.0,74.0,29.99,ENE,58,3.0,6.0,65,0.00,,,0.00,Meteo,2013-09-19 16:09:00,
2013-09-19 12:14:00,87.0,72.0,29.98,NE,35,3.0,6.0,62,0.00,,,0.00,Meteo,2013-09-19 16:14:00,
2013-09-19 12:19:00,87.0,72.0,29.98,ESE,103,1.0,2.0,61,0.00,,,0.00,Meteo,2013-09-19 16:19:00,
2013-09-19 12:24:00,87.0,72.0,29.98,NNE,31,3.0,7.0,61,0.00,,,0.00,Meteo,2013-09-19 16:24:00,
2013-09-19 12:29:00,87.0,72.0,29.98,NE,42,2.0,5.0,62,0.00,,,0.00,Meteo,2013-09-19 16:29:00,
2013-09-19 12:34:00,87.0,72.0,29.98,NE,38,3.0,5.0,62,0.00,,,0.00,Meteo,2013-09-19 16:34:00,
2013-09-19 12:40:00,87.0,73.0,29.98,ENE,62,3.0,7.0,63,0.00,,,0.00,Meteo,2013-09-19 16:40:00,
2013-09-19 12:45:00,88.0,73.0,29.97,North,8,2.0,5.0,61,0.00,,,0.00,Meteo,2013-09-19 16:45:00,
2013-09-19 12:50:00,87.0,71.0,29.97,NNE,30,3.0,6.0,60,0.00,,,0.00,Meteo,2013-09-19 16:50:00,
2013-09-19 12:55:00,87.0,72.0,29.97,ENE,70,2.0,6.0,61,0.00,,,0.00,Meteo,2013-09-19 16:55:00,
2013-09-19 13:00:00,87.0,72.0,29.97,NNE,28,4.0,9.0,62,0.00,,,0.00,Meteo,2013-09-19 17:00:00,
2013-09-19 13:06:00,87.0,71.0,29.97,NNE,18,2.0,5.0,60,0.00,,,0.00,Meteo,2013-09-19 17:06:00,
2013-09-19 13:11:00,88.0,73.0,29.97,ESE,104,1.0,4.0,61,0.00,,,0.00,Meteo,2013-09-19 17:11:00,
2013-09-19 13:16:00,88.0,71.0,29.96,ENE,72,2.0,6.0,58,0.00,,,0.00,Meteo,2013-09-19 17:16:00,
2013-09-19 13:21:00,89.0,71.0,29.96,East,88,2.0,6.0,56,0.00,,,0.00,Meteo,2013-09-19 17:21:00,
2013-09-19 13:26:00,89.0,70.0,29.96,NE,56,3.0,6.0,54,0.00,,,0.00,Meteo,2013-09-19 17:26:00,
2013-09-19 13:31:00,89.0,71.0,29.95,NE,56,3.0,6.0,55,0.00,,,0.00,Meteo,2013-09-19 17:31:00,
2013-09-19 13:37:00,89.0,71.0,29.95,NE,55,5.0,9.0,55,0.00,,,0.00,Meteo,2013-09-19 17:37:00,
2013-09-19 13:42:00,90.0,71.0,29.95,ENE,71,3.0,7.0,53,0.00,,,0.00,Meteo,2013-09-19 17:42:00,
2013-09-19 13:47:00,90.0,69.0,29.94,ESE,104,1.0,3.0,51,0.00,,,0.00,Meteo,2013-09-19 17:47:00,
2013-09-19 13:52:00,90.0,71.0,29.94,NE,49,3.0,8.0,53,0.00,,,0.00,Meteo,2013-09-19 17:52:00,
2013-09-19 13:57:00,91.0,72.0,29.94,ENE,77,4.0,8.0,53,0.00,,,0.00,Meteo,2013-09-19 17:57:00,
2013-09-19 14:02:00,91.0,71.0,29.94,North,6,2.0,5.0,52,0.00,,,0.00,Meteo,2013-09-19 18:02:00,
2013-09-19 14:08:00,91.0,71.0,29.94,NE,47,2.0,4.0,52,0.00,,,0.00,Meteo,2013-09-19 18:08:00,
2013-09-19 14:13:00,90.0,71.0,29.94,ENE,57,3.0,6.0,54,0.00,,,0.00,Meteo,2013-09-19 18:13:00,
2013-09-19 14:18:00,88.0,71.0,29.94,NNE,23,3.0,7.0,57,0.00,,,0.00,Meteo,2013-09-19 18:18:00,
2013-09-19 14:23:00,88.0,72.0,29.94,ENE,74,2.0,4.0,59,0.00,,,0.00,Meteo,2013-09-19 18:23:00,
2013-09-19 14:28:00,89.0,72.0,29.93,ENE,64,2.0,3.0,58,0.00,,,0.00,Meteo,2013-09-19 18:28:00,
2013-09-19 14:34:00,90.0,72.0,29.93,East,82,4.0,5.0,55,0.00,,,0.00,Meteo,2013-09-19 18:34:00,
2013-09-19 14:39:00,90.0,72.0,29.93,ESE,119,4.0,10.0,56,0.00,,,0.00,Meteo,2013-09-19 18:39:00,
2013-09-19 14:44:00,90.0,71.0,29.93,SE,131,0.0,1.0,54,0.00,,,0.00,Meteo,2013-09-19 18:44:00,
2013-09-19 14:49:00,90.0,72.0,29.93,ENE,68,2.0,4.0,56,0.00,,,0.00,Meteo,2013-09-19 18:49:00,
2013-09-19 14:54:00,89.0,71.0,29.93,ENE,72,1.0,6.0,56,0.00,,,0.00,Meteo,2013-09-19 18:54:00,
2013-09-19 14:59:00,88.0,71.0,29.92,East,84,2.0,8.0,58,0.00,,,0.00,Meteo,2013-09-19 18:59:00,
2013-09-19 15:05:00,88.0,72.0,29.92,ESE,105,2.0,3.0,59,0.00,,,0.00,Meteo,2013-09-19 19:05:00,
2013-09-19 15:10:00,87.0,72.0,29.92,ENE,76,2.0,3.0,61,0.00,,,0.00,Meteo,2013-09-19 19:10:00,
2013-09-19 15:15:00,86.0,71.0,29.93,ENE,78,2.0,5.0,61,0.00,,,0.00,Meteo,2013-09-19 19:15:00,
2013-09-19 15:20:00,86.0,71.0,29.93,ENE,70,4.0,11.0,62,0.00,,,0.00,Meteo,2013-09-19 19:20:00,
2013-09-19 15:25:00,87.0,74.0,29.93,ENE,72,2.0,5.0,65,0.00,,,0.00,Meteo,2013-09-19 19:25:00,
2013-09-19 15:30:00,86.0,74.0,29.93,NE,56,4.0,8.0,67,0.00,,,0.00,Meteo,2013-09-19 19:30:00,
2013-09-19 15:36:00,86.0,75.0,29.93,NE,49,3.0,7.0,70,0.00,,,0.00,Meteo,2013-09-19 19:36:00,
2013-09-19 15:41:00,85.0,75.0,29.93,NNE,28,2.0,6.0,73,0.00,,,0.00,Meteo,2013-09-19 19:41:00,
2013-09-19 15:46:00,84.0,74.0,29.92,ENE,75,4.0,7.0,72,0.00,,,0.00,Meteo,2013-09-19 19:46:00,
2013-09-19 15:51:00,85.0,74.0,29.92,ENE,64,2.0,6.0,69,0.00,,,0.00,Meteo,2013-09-19 19:51:00,
2013-09-19 15:56:00,85.0,74.0,29.92,ENE,58,2.0,6.0,70,0.00,,,0.00,Meteo,2013-09-19 19:56:00,
2013-09-19 16:01:00,85.0,74.0,29.92,North,354,3.0,11.0,69,0.00,,,0.00,Meteo,2013-09-19 20:01:00,
2013-09-19 16:07:00,85.0,73.0,29.92,ENE,58,4.0,7.0,68,0.00,,,0.00,Meteo,2013-09-19 20:07:00,
2013-09-19 16:12:00,85.0,73.0,29.92,East,86,5.0,10.0,67,0.00,,,0.00,Meteo,2013-09-19 20:12:00,
2013-09-19 16:17:00,84.0,73.0,29.92,ENE,67,2.0,7.0,70,0.00,,,0.00,Meteo,2013-09-19 20:17:00,
2013-09-19 16:22:00,84.0,73.0,29.92,ENE,76,1.0,3.0,70,0.00,,,0.00,Meteo,2013-09-19 20:22:00,
2013-09-19 16:27:00,84.0,73.0,29.92,East,92,1.0,6.0,69,0.00,,,0.00,Meteo,2013-09-19 20:27:00,
2013-09-19 16:33:00,84.0,73.0,29.92,NE,56,4.0,11.0,69,0.00,,,0.00,Meteo,2013-09-19 20:33:00,
2013-09-19 16:38:00,84.0,72.0,29.92,ENE,77,3.0,10.0,67,0.00,,,0.00,Meteo,2013-09-19 20:38:00,
2013-09-19 16:43:00,84.0,73.0,29.92,ENE,65,4.0,8.0,69,0.00,,,0.00,Meteo,2013-09-19 20:43:00,
2013-09-19 16:48:00,84.0,72.0,29.92,NE,49,5.0,12.0,68,0.00,,,0.00,Meteo,2013-09-19 20:48:00,
2013-09-19 16:53:00,85.0,73.0,29.92,ENE,77,2.0,6.0,68,0.00,,,0.00,Meteo,2013-09-19 20:53:00,
2013-09-19 16:58:00,85.0,72.0,29.92,East,80,4.0,7.0,66,0.00,,,0.00,Meteo,2013-09-19 20:58:00,
2013-09-19 17:04:00,85.0,72.0,29.92,ENE,72,3.0,8.0,65,0.00,,,0.00,Meteo,2013-09-19 21:04:00,
2013-09-19 17:09:00,85.0,72.0,29.92,ESE,110,2.0,6.0,66,0.00,,,0.00,Meteo,2013-09-19 21:09:00,
2013-09-19 17:14:00,85.0,72.0,29.93,ENE,68,1.0,5.0,66,0.00,,,0.00,Meteo,2013-09-19 21:14:00,
2013-09-19 17:19:00,84.0,72.0,29.93,East,91,2.0,5.0,68,0.00,,,0.00,Meteo,2013-09-19 21:19:00,
2013-09-19 17:24:00,84.0,72.0,29.93,North,0,0.0,0.0,67,0.00,,,0.00,Meteo,2013-09-19 21:24:00,
2013-09-19 17:29:00,83.0,71.0,29.93,ENE,72,2.0,3.0,68,0.00,,,0.00,Meteo,2013-09-19 21:29:00,
2013-09-19 17:35:00,83.0,72.0,29.93,ENE,67,1.0,6.0,69,0.00,,,0.00,Meteo,2013-09-19 21:35:00,
2013-09-19 17:40:00,83.0,71.0,29.93,ENE,63,2.0,6.0,68,0.00,,,0.00,Meteo,2013-09-19 21:40:00,
2013-09-19 17:45:00,83.0,71.0,29.93,East,91,2.0,6.0,68,0.00,,,0.00,Meteo,2013-09-19 21:45:00,
2013-09-19 17:50:00,83.0,72.0,29.93,NE,51,4.0,7.0,69,0.00,,,0.00,Meteo,2013-09-19 21:50:00,
2013-09-19 17:55:00,83.0,72.0,29.93,ENE,57,2.0,5.0,70,0.00,,,0.00,Meteo,2013-09-19 21:55:00,
2013-09-19 18:01:00,82.0,71.0,29.93,ENE,65,3.0,6.0,70,0.00,,,0.00,Meteo,2013-09-19 22:01:00,
2013-09-19 18:06:00,82.0,72.0,29.93,East,88,3.0,7.0,72,0.00,,,0.00,Meteo,2013-09-19 22:06:00,
2013-09-19 18:11:00,82.0,72.0,29.93,ENE,72,3.0,7.0,73,0.00,,,0.00,Meteo,2013-09-19 22:11:00,
2013-09-19 18:16:00,81.0,73.0,29.93,ESE,119,4.0,11.0,76,0.01,,,0.01,Meteo,2013-09-19 22:16:00,
2013-09-19 18:21:00,80.0,74.0,29.93,ESE,112,2.0,6.0,83,0.05,,,0.05,Meteo,2013-09-19 22:21:00,
2013-09-19 18:26:00,78.0,74.0,29.93,ESE,119,3.0,8.0,87,0.07,,,0.07,Meteo,2013-09-19 22:26:00,
2013-09-19 18:32:00,77.0,74.0,29.94,SE,139,0.0,2.0,89,0.08,,,0.08,Meteo,2013-09-19 22:32:00,
2013-09-19 18:37:00,76.0,73.0,29.94,SE,126,0.0,1.0,91,0.08,,,0.08,Meteo,2013-09-19 22:37:00,
2013-09-19 18:42:00,76.0,74.0,29.94,North,0,0.0,0.0,92,0.08,,,0.08,Meteo,2013-09-19 22:42:00,
2013-09-19 18:47:00,76.0,74.0,29.94,North,0,0.0,0.0,93,0.08,,,0.08,Meteo,2013-09-19 22:47:00,
2013-09-19 18:52:00,76.0,74.0,29.94,North,0,0.0,0.0,94,0.08,,,0.08,Meteo,2013-09-19 22:52:00,
2013-09-19 18:57:00,76.0,74.0,29.95,ENE,70,1.0,2.0,95,0.08,,,0.08,Meteo,2013-09-19 22:57:00,
2013-09-19 19:03:00,75.0,73.0,29.95,North,0,0.0,0.0,94,0.08,,,0.08,Meteo,2013-09-19 23:03:00,
2013-09-19 19:08:00,75.0,73.0,29.95,ENE,58,2.0,6.0,94,0.08,,,0.08,Meteo,2013-09-19 23:08:00,
2013-09-19 19:13:00,75.0,73.0,29.95,ENE,76,0.0,1.0,95,0.08,,,0.08,Meteo,2013-09-19 23:13:00,
2013-09-19 19:18:00,74.0,72.0,29.95,ENE,76,0.0,1.0,95,0.05,,,0.08,Meteo,2013-09-19 23:18:00,
2013-09-19 19:23:00,74.0,72.0,29.95,NE,50,0.0,2.0,95,0.03,,,0.08,Meteo,2013-09-19 23:23:00,
2013-09-19 19:29:00,74.0,72.0,29.95,NE,45,0.0,1.0,95,0.00,,,0.08,Meteo,2013-09-19 23:29:00,
2013-09-19 19:34:00,74.0,72.0,29.95,East,88,1.0,2.0,95,0.00,,,0.08,Meteo,2013-09-19 23:34:00,
2013-09-19 19:39:00,74.0,72.0,29.95,East,92,1.0,4.0,95,0.00,,,0.08,Meteo,2013-09-19 23:39:00,
2013-09-19 19:44:00,74.0,72.0,29.95,East,79,0.0,1.0,95,0.00,,,0.08,Meteo,2013-09-19 23:44:00,
2013-09-19 19:49:00,73.0,71.0,29.95,North,0,0.0,0.0,95,0.00,,,0.08,Meteo,2013-09-19 23:49:00,
2013-09-19 19:54:00,73.0,71.0,29.95,North,0,0.0,0.0,95,0.00,,,0.08,Meteo,2013-09-19 23:54:00,
2013-09-19 20:00:00,73.0,71.0,29.95,North,0,0.0,0.0,95,0.00,,,0.08,Meteo,2013-09-20 00:00:00,
2013-09-19 20:05:00,73.0,71.0,29.95,East,79,0.0,1.0,95,0.00,,,0.08,Meteo,2013-09-20 00:05:00,
2013-09-19 20:10:00,73.0,72.0,29.95,North,0,0.0,0.0,96,0.00,,,0.00,Meteo,2013-09-20 00:10:00,
2013-09-19 20:15:00,73.0,72.0,29.96,East,93,0.0,2.0,96,0.00,,,0.00,Meteo,2013-09-20 00:15:00,
2013-09-19 20:20:00,73.0,72.0,29.96,East,91,0.0,1.0,96,0.00,,,0.00,Meteo,2013-09-20 00:20:00,
2013-09-19 20:25:00,73.0,72.0,29.96,North,0,0.0,0.0,96,0.00,,,0.00,Meteo,2013-09-20 00:25:00,
2013-09-19 20:31:00,72.0,71.0,29.96,East,90,0.0,1.0,96,0.00,,,0.00,Meteo,2013-09-20 00:31:00,
2013-09-19 20:36:00,72.0,71.0,29.96,East,91,1.0,3.0,96,0.00,,,0.00,Meteo,2013-09-20 00:36:00,
2013-09-19 20:41:00,72.0,71.0,29.96,North,0,0.0,0.0,96,0.00,,,0.00,Meteo,2013-09-20 00:41:00,
2013-09-19 20:46:00,72.0,71.0,29.96,North,0,0.0,0.0,97,0.00,,,0.00,Meteo,2013-09-20 00:46:00,
2013-09-19 20:51:00,72.0,71.0,29.96,North,0,0.0,0.0,97,0.00,,,0.00,Meteo,2013-09-20 00:51:00,
2013-09-19 20:57:00,72.0,71.0,29.96,North,0,0.0,0.0,97,0.00,,,0.00,Meteo,2013-09-20 00:57:00,
2013-09-19 21:02:00,72.0,71.0,29.96,East,91,0.0,1.0,97,0.00,,,0.00,Meteo,2013-09-20 01:02:00,
2013-09-19 21:07:00,72.0,71.0,29.96,North,0,0.0,0.0,97,0.00,,,0.00,Meteo,2013-09-20 01:07:00,
2013-09-19 21:12:00,72.0,71.0,29.96,North,0,0.0,0.0,97,0.00,,,0.00,Meteo,2013-09-20 01:12:00,
2013-09-19 21:17:00,71.0,70.0,29.96,North,0,0.0,0.0,97,0.00,,,0.00,Meteo,2013-09-20 01:17:00,
2013-09-19 21:22:00,71.0,70.0,29.96,East,91,0.0,1.0,97,0.00,,,0.00,Meteo,2013-09-20 01:22:00,
2013-09-19 21:28:00,71.0,70.0,29.96,North,0,0.0,0.0,97,0.00,,,0.00,Meteo,2013-09-20 01:28:00,
2013-09-19 21:33:00,71.0,70.0,29.96,North,0,0.0,0.0,97,0.00,,,0.00,Meteo,2013-09-20 01:33:00,
2013-09-19 21:38:00,71.0,70.0,29.96,North,0,0.0,0.0,97,0.00,,,0.00,Meteo,2013-09-20 01:38:00,
2013-09-19 21:43:00,71.0,70.0,29.96,North,0,0.0,0.0,97,0.00,,,0.00,Meteo,2013-09-20 01:43:00,
2013-09-19 21:48:00,71.0,70.0,29.96,North,0,0.0,0.0,97,0.00,,,0.00,Meteo,2013-09-20 01:48:00,
2013-09-19 21:53:00,71.0,70.0,29.96,North,0,0.0,0.0,97,0.00,,,0.00,Meteo,2013-09-20 01:53:00,
2013-09-19 21:59:00,71.0,70.0,29.96,North,0,0.0,0.0,97,0.00,,,0.00,Meteo,2013-09-20 01:59:00,
2013-09-19 22:04:00,71.0,70.0,29.96,North,0,0.0,0.0,97,0.00,,,0.00,Meteo,2013-09-20 02:04:00,
2013-09-19 22:09:00,71.0,70.0,29.96,North,0,0.0,0.0,97,0.00,,,0.00,Meteo,2013-09-20 02:09:00,
2013-09-19 22:14:00,71.0,70.0,29.97,North,0,0.0,0.0,97,0.00,,,0.00,Meteo,2013-09-20 02:14:00,
2013-09-19 22:19:00,71.0,70.0,29.97,North,0,0.0,0.0,97,0.00,,,0.00,Meteo,2013-09-20 02:19:00,
2013-09-19 22:24:00,71.0,70.0,29.97,North,0,0.0,0.0,98,0.00,,,0.00,Meteo,2013-09-20 02:24:00,
2013-09-19 22:30:00,71.0,70.0,29.97,North,0,0.0,0.0,98,0.00,,,0.00,Meteo,2013-09-20 02:30:00,
2013-09-19 22:35:00,70.0,69.0,29.97,North,0,0.0,0.0,98,0.00,,,0.00,Meteo,2013-09-20 02:35:00,
2013-09-19 22:40:00,70.0,69.0,29.97,North,0,0.0,0.0,98,0.00,,,0.00,Meteo,2013-09-20 02:40:00,
2013-09-19 22:45:00,70.0,69.0,29.96,North,0,0.0,0.0,98,0.00,,,0.00,Meteo,2013-09-20 02:45:00,
2013-09-19 22:50:00,70.0,69.0,29.96,North,0,0.0,0.0,98,0.00,,,0.00,Meteo,2013-09-20 02:50:00,
2013-09-19 22:56:00,70.0,69.0,29.96,North,0,0.0,0.0,98,0.00,,,0.00,Meteo,2013-09-20 02:56:00,
2013-09-19 23:01:00,70.0,69.0,29.96,North,0,0.0,0.0,98,0.00,,,0.00,Meteo,2013-09-20 03:01:00,
2013-09-19 23:06:00,70.0,69.0,29.96,North,0,0.0,0.0,98,0.00,,,0.00,Meteo,2013-09-20 03:06:00,
2013-09-19 23:11:00,70.0,69.0,29.96,North,0,0.0,0.0,98,0.00,,,0.00,Meteo,2013-09-20 03:11:00,
2013-09-19 23:16:00,70.0,69.0,29.96,North,0,0.0,0.0,98,0.00,,,0.00,Meteo,2013-09-20 03:16:00,
2013-09-19 23:21:00,70.0,69.0,29.96,North,0,0.0,0.0,98,0.00,,,0.00,Meteo,2013-09-20 03:21:00,
2013-09-19 23:27:00,70.0,69.0,29.96,North,0,0.0,0.0,98,0.00,,,0.00,Meteo,2013-09-20 03:27:00,
2013-09-19 23:32:00,70.0,69.0,29.96,North,0,0.0,0.0,98,0.00,,,0.00,Meteo,2013-09-20 03:32:00,
2013-09-19 23:37:00,70.0,69.0,29.96,North,0,0.0,0.0,98,0.00,,,0.00,Meteo,2013-09-20 03:37:00,
2013-09-19 23:42:00,70.0,69.0,29.96,North,0,0.0,0.0,98,0.00,,,0.00,Meteo,2013-09-20 03:42:00,
2013-09-19 23:47:00,70.0,69.0,29.96,North,0,0.0,0.0,98,0.00,,,0.00,Meteo,2013-09-20 03:47:00,
2013-09-19 23:52:00,70.0,69.0,29.96,North,0,0.0,0.0,98,0.00,,,0.00,Meteo,2013-09-20 03:52:00,
2013-09-19 23:58:00,70.0,69.0,29.96,North,0,0.0,0.0,98,0.00,,,0.00,Meteo,2013-09-20 03:58:00,